Time;durP1;ratioP1;P1;durP2;ratioP2;P2;SDS_P1;SDS_P2;PMS_P1;PMS_P2;Temp;Humidity;BMP_temperature;BMP_pressure;BME280_temperature;BME280_humidity;BME280_pressure;Samples;Min_cycle;Max_cycle;Signal;HPM_P1;HPM_P2
2021/08/12 00:00:37;;;;;;;0.40;0.20;;;;;;;17.62;100.00;100583.38;4998494;28;20454;-54
2021/08/12 00:03:03;;;;;;;0.40;0.20;;;;;;;17.38;100.00;100582.84;5006437;28;20467;-54
2021/08/12 00:05:30;;;;;;;0.40;0.20;;;;;;;17.59;100.00;100580.88;4983401;28;20456;-54
2021/08/12 00:07:57;;;;;;;0.40;0.30;;;;;;;17.40;100.00;100581.81;4996389;28;20532;-54
2021/08/12 00:10:24;;;;;;;0.93;0.93;;;;;;;17.42;100.00;100592.50;4995416;28;20961;-55
2021/08/12 00:12:50;;;;;;;0.40;0.27;;;;;;;17.45;100.00;100592.34;4986144;28;20497;-54
2021/08/12 00:15:17;;;;;;;0.40;0.20;;;;;;;17.51;100.00;100593.84;4993681;28;20457;-54
2021/08/12 00:17:44;;;;;;;0.63;0.63;;;;;;;17.65;100.00;100597.53;4996492;28;20826;-55
2021/08/12 00:20:11;;;;;;;0.40;0.20;;;;;;;17.57;100.00;100589.03;4983124;28;20485;-54
2021/08/12 00:22:38;;;;;;;1.33;1.33;;;;;;;17.28;100.00;100593.22;4996287;28;20453;-54
2021/08/12 00:25:06;;;;;;;0.43;0.30;;;;;;;17.27;100.00;100586.13;4991977;28;20496;-55
2021/08/12 00:27:33;;;;;;;30.20;1.60;;;;;;;17.41;100.00;100590.78;4987273;28;20493;-54
2021/08/12 00:29:59;;;;;;;0.40;0.30;;;;;;;17.24;100.00;100585.38;4995934;28;20445;-54
2021/08/12 00:32:26;;;;;;;0.97;0.97;;;;;;;17.36;100.00;100595.50;4984684;28;20867;-55
2021/08/12 00:34:53;;;;;;;0.50;0.30;;;;;;;17.23;100.00;100595.25;4994340;28;20492;-54
2021/08/12 00:37:19;;;;;;;0.63;0.60;;;;;;;16.95;100.00;100594.91;4995848;28;20453;-55
2021/08/12 00:39:46;;;;;;;0.40;0.20;;;;;;;17.14;100.00;100585.88;4982815;28;21005;-55
2021/08/12 00:42:13;;;;;;;0.60;0.60;;;;;;;17.01;100.00;100589.25;4995740;28;20454;-55
2021/08/12 00:44:40;;;;;;;0.40;0.20;;;;;;;17.05;100.00;100591.69;4989397;28;20516;-55
2021/08/12 00:47:06;;;;;;;0.50;0.40;;;;;;;17.08;100.00;100585.31;4988068;28;20489;-54
2021/08/12 00:49:37;;;;;;;0.40;0.20;;;;;;;17.08;100.00;100596.91;4995410;28;20454;-55
2021/08/12 00:52:06;;;;;;;0.40;0.20;;;;;;;17.06;100.00;100593.44;4983577;28;20454;-54
2021/08/12 00:54:35;;;;;;;0.40;0.30;;;;;;;16.90;100.00;100603.22;4995185;28;20946;-55
2021/08/12 00:57:04;;;;;;;0.40;0.20;;;;;;;17.18;100.00;100600.88;4995007;28;20489;-55
2021/08/12 00:59:39;;;;;;;0.40;0.20;;;;;;;17.21;100.00;100599.84;4981981;28;20457;-54
2021/08/12 01:02:15;;;;;;;0.40;0.20;;;;;;;16.92;100.00;100605.81;4999799;28;21011;-55
2021/08/12 01:04:47;;;;;;;1.00;1.00;;;;;;;16.92;100.00;100605.81;5002382;28;20462;-54
2021/08/12 01:07:25;;;;;;;1.90;1.47;;;;;;;16.97;100.00;100601.94;4992632;28;20500;-54
2021/08/12 01:10:00;;;;;;;0.40;0.20;;;;;;;17.12;100.00;100608.38;4991722;28;20481;-54
2021/08/12 01:12:43;;;;;;;0.40;0.20;;;;;;;16.95;100.00;100597.59;4985964;28;20450;-54
2021/08/12 01:15:15;;;;;;;0.40;0.30;;;;;;;16.94;100.00;100603.94;4993695;28;20507;-55
2021/08/12 01:17:52;;;;;;;0.40;0.30;;;;;;;16.82;100.00;100600.03;4995145;28;20511;-54
2021/08/12 01:20:41;;;;;;;0.40;0.30;;;;;;;16.84;100.00;100596.31;4983753;28;20481;-54
2021/08/12 01:23:12;;;;;;;0.50;0.43;;;;;;;16.98;100.00;100611.75;4981833;28;20473;-54
2021/08/12 01:25:41;;;;;;;0.60;0.60;;;;;;;16.81;100.00;100609.91;4994777;28;20453;-54
2021/08/12 01:28:14;;;;;;;0.40;0.40;;;;;;;17.02;100.00;100607.09;4989606;28;20526;-54
2021/08/12 01:30:53;;;;;;;5.70;0.90;;;;;;;17.02;100.00;100602.59;4988349;28;20454;-54
2021/08/12 01:34:01;;;;;;;0.40;0.20;;;;;;;16.87;100.00;100604.25;4998502;28;20460;-54
2021/08/12 01:36:29;;;;;;;0.40;0.30;;;;;;;16.73;100.00;100590.63;4963949;28;20481;-54
2021/08/12 01:38:58;;;;;;;0.40;0.20;;;;;;;16.68;100.00;100592.66;4981478;28;20474;-54
2021/08/12 01:41:28;;;;;;;0.40;0.20;;;;;;;16.97;100.00;100585.84;4994898;28;20484;-54
2021/08/12 01:43:57;;;;;;;0.40;0.20;;;;;;;16.86;100.00;100588.22;4993438;28;20446;-54
2021/08/12 01:46:26;;;;;;;0.40;0.20;;;;;;;16.73;100.00;100590.63;4983239;28;21158;-54
2021/08/12 01:48:55;;;;;;;0.40;0.20;;;;;;;16.65;100.00;100589.22;4994044;28;20523;-54
2021/08/12 01:51:24;;;;;;;0.80;0.80;;;;;;;16.72;100.00;100593.34;4986008;28;20454;-54
2021/08/12 01:53:52;;;;;;;0.40;0.30;;;;;;;16.53;100.00;100593.38;4990420;28;20457;-54
2021/08/12 01:56:20;;;;;;;0.40;0.40;;;;;;;16.40;100.00;100594.91;4994397;28;20974;-54
2021/08/12 01:58:47;;;;;;;1.03;1.03;;;;;;;16.41;100.00;100594.81;4981198;28;20497;-54
2021/08/12 02:01:18;;;;;;;0.40;0.20;;;;;;;16.65;100.00;100598.13;4994226;28;20453;-54
2021/08/12 02:03:46;;;;;;;0.40;0.20;;;;;;;16.53;100.00;100585.31;5005737;28;20446;-54
2021/08/12 02:06:14;;;;;;;0.40;0.20;;;;;;;16.47;100.00;100589.19;4990436;28;20449;-54
2021/08/12 02:08:41;;;;;;;0.40;0.20;;;;;;;16.54;100.00;100587.03;4990360;28;21105;-54
2021/08/12 02:11:08;;;;;;;0.40;0.20;;;;;;;16.63;100.00;100588.44;4988500;28;20461;-54
2021/08/12 02:13:34;;;;;;;6.33;1.90;;;;;;;16.50;100.00;100588.16;4992841;28;20454;-54
2021/08/12 02:16:01;;;;;;;0.50;0.30;;;;;;;16.48;100.00;100588.22;4982210;28;20450;-54
2021/08/12 02:18:28;;;;;;;0.40;0.30;;;;;;;16.28;100.00;100588.28;4992456;28;20468;-54
2021/08/12 02:21:00;;;;;;;1.07;0.57;;;;;;;16.24;100.00;100592.06;4993603;28;20950;-54
2021/08/12 02:23:36;;;;;;;0.40;0.20;;;;;;;16.37;100.00;100584.31;4981146;28;20445;-55
2021/08/12 02:26:08;;;;;;;0.40;0.20;;;;;;;16.32;100.00;100578.31;4980473;28;20485;-54
2021/08/12 02:28:36;;;;;;;0.60;0.53;;;;;;;16.17;100.00;100572.72;4992209;28;20552;-54
2021/08/12 02:31:05;;;;;;;0.40;0.30;;;;;;;16.23;100.00;100583.16;4991574;28;20528;-54
2021/08/12 02:33:36;;;;;;;0.40;0.20;;;;;;;16.33;100.00;100577.38;4983770;28;20537;-54
2021/08/12 02:36:05;;;;;;;0.40;0.20;;;;;;;16.63;100.00;100569.63;4993464;28;20825;-54
2021/08/12 02:38:34;;;;;;;1.70;0.73;;;;;;;16.44;100.00;100572.31;4983059;28;20521;-54
2021/08/12 02:41:02;;;;;;;0.40;0.20;;;;;;;16.59;100.00;100575.16;4991409;28;20900;-54
2021/08/12 02:43:30;;;;;;;7.40;3.30;;;;;;;16.64;100.00;100571.38;4993736;28;20442;-55
2021/08/12 02:46:01;;;;;;;1.50;1.40;;;;;;;16.56;100.00;100571.75;4980429;28;20504;-54
2021/08/12 02:48:29;;;;;;;1.93;1.80;;;;;;;16.42;100.00;100577.78;4993408;28;20493;-54
2021/08/12 02:50:59;;;;;;;0.93;0.93;;;;;;;16.40;100.00;100576.97;4987046;28;20451;-54
2021/08/12 02:53:30;;;;;;;0.40;0.20;;;;;;;16.32;100.00;100581.00;4987055;28;20450;-55
2021/08/12 02:56:05;;;;;;;0.40;0.20;;;;;;;16.49;100.00;100579.22;4993498;28;20456;-54
2021/08/12 02:58:35;;;;;;;0.50;0.50;;;;;;;16.17;100.00;100580.78;4980052;28;20521;-54
2021/08/12 03:01:03;;;;;;;0.40;0.20;;;;;;;16.20;100.00;100580.63;4993382;28;20477;-54
2021/08/12 03:03:31;;;;;;;0.40;0.20;;;;;;;16.24;100.00;100576.84;5006155;28;20458;-54
2021/08/12 03:05:59;;;;;;;0.40;0.20;;;;;;;16.20;100.00;100567.22;4990396;28;20459;-54
2021/08/12 03:08:29;;;;;;;0.40;0.30;;;;;;;15.97;100.00;100572.78;4989696;28;20498;-55
2021/08/12 03:10:57;;;;;;;0.40;0.30;;;;;;;15.74;100.00;100572.94;4992987;28;20511;-54
2021/08/12 03:13:24;;;;;;;0.40;0.20;;;;;;;15.84;100.00;100574.28;4980063;28;20454;-54
2021/08/12 03:15:51;;;;;;;0.40;0.20;;;;;;;15.88;100.00;100573.19;4992958;28;20954;-54
2021/08/12 03:18:18;;;;;;;0.40;0.20;;;;;;;15.91;100.00;100571.25;4987516;28;20477;-54
2021/08/12 03:20:45;;;;;;;0.40;0.20;;;;;;;15.90;100.00;100576.69;4983683;28;20449;-54
2021/08/12 03:23:12;;;;;;;0.97;0.97;;;;;;;15.95;100.00;100566.63;4992805;28;20954;-54
2021/08/12 03:25:39;;;;;;;0.67;0.67;;;;;;;15.75;100.00;100572.88;4981823;28;20513;-54
2021/08/12 03:28:05;;;;;;;0.40;0.20;;;;;;;15.79;100.00;100569.13;4991010;28;20997;-54
2021/08/12 03:30:32;;;;;;;1.03;1.03;;;;;;;15.83;100.00;100573.41;4992936;28;20457;-54
2021/08/12 03:32:59;;;;;;;0.40;0.20;;;;;;;15.97;100.00;100570.09;4979601;28;20464;-54
2021/08/12 03:35:25;;;;;;;0.40;0.20;;;;;;;15.63;100.00;100579.69;4991649;28;20898;-55
2021/08/12 03:37:52;;;;;;;0.40;0.30;;;;;;;15.79;100.00;100579.84;4986444;28;20502;-55
2021/08/12 03:40:18;;;;;;;0.40;0.20;;;;;;;15.68;100.00;100577.66;4985529;28;20485;-55
2021/08/12 03:42:45;;;;;;;0.40;0.20;;;;;;;15.66;100.00;100579.53;4992806;28;20477;-54
2021/08/12 03:45:12;;;;;;;0.60;0.60;;;;;;;15.78;100.00;100579.94;4980434;28;20533;-54
2021/08/12 03:47:39;;;;;;;0.40;0.20;;;;;;;15.79;100.00;100579.00;4991824;28;20535;-55
2021/08/12 03:50:06;;;;;;;4.67;0.63;;;;;;;15.65;100.00;100587.66;4992460;28;20489;-54
2021/08/12 03:52:32;;;;;;;0.40;0.30;;;;;;;15.72;100.00;100582.88;4979449;28;20489;-54
2021/08/12 03:54:59;;;;;;;0.40;0.20;;;;;;;15.76;100.00;100585.38;4992755;28;20449;-54
2021/08/12 03:57:25;;;;;;;0.40;0.20;;;;;;;15.63;100.00;100589.53;4986603;28;20478;-54
2021/08/12 03:59:52;;;;;;;1.77;1.67;;;;;;;15.65;100.00;100583.16;4985983;28;20453;-54
2021/08/12 04:02:19;;;;;;;0.50;0.37;;;;;;;15.52;100.00;100586.41;4992267;28;20505;-54
2021/08/12 04:04:45;;;;;;;2.57;1.03;;;;;;;15.53;100.00;100575.63;4979695;28;20943;-54
2021/08/12 04:07:12;;;;;;;0.67;0.67;;;;;;;15.47;100.00;100575.00;4989853;28;20901;-54
2021/08/12 04:09:39;;;;;;;0.50;0.40;;;;;;;15.50;100.00;100582.94;4989038;28;20493;-54
2021/08/12 04:12:06;;;;;;;0.50;0.37;;;;;;;15.54;100.00;100579.19;4986101;28;20468;-54
2021/08/12 04:14:32;;;;;;;8.33;2.53;;;;;;;15.42;100.00;100588.63;4986593;28;20510;-54
2021/08/12 04:16:59;;;;;;;0.40;0.20;;;;;;;15.40;100.00;100587.81;4992327;28;20449;-54
2021/08/12 04:19:25;;;;;;;0.40;0.30;;;;;;;15.55;100.00;100579.09;4979111;28;20495;-54
2021/08/12 04:21:53;;;;;;;0.40;0.20;;;;;;;15.55;100.00;100586.28;4992537;28;20462;-54
2021/08/12 04:24:19;;;;;;;0.40;0.20;;;;;;;15.39;100.00;100596.81;4991895;28;20455;-54
2021/08/12 04:26:46;;;;;;;0.40;0.30;;;;;;;15.62;100.00;100601.16;4980230;28;20481;-54
2021/08/12 04:29:12;;;;;;;0.60;0.60;;;;;;;15.49;100.00;100606.19;4991966;28;20551;-54
2021/08/12 04:31:39;;;;;;;0.40;0.30;;;;;;;15.43;100.00;100606.44;4987045;28;20517;-54
2021/08/12 04:34:06;;;;;;;0.40;0.30;;;;;;;15.46;100.00;100608.09;4990618;28;20531;-54
2021/08/12 04:36:32;;;;;;;0.40;0.20;;;;;;;15.57;100.00;100604.03;4995774;28;20453;-54
2021/08/12 04:38:59;;;;;;;0.50;0.40;;;;;;;15.63;100.00;100608.28;4982273;28;20467;-54
2021/08/12 04:41:26;;;;;;;0.40;0.30;;;;;;;15.77;100.00;100611.22;4995639;28;20460;-54
2021/08/12 04:43:52;;;;;;;0.40;0.20;;;;;;;15.93;100.00;100612.28;4986843;28;20462;-55
2021/08/12 04:46:20;;;;;;;0.73;0.73;;;;;;;15.82;100.00;100619.91;4995641;28;20489;-54
2021/08/12 04:48:47;;;;;;;0.40;0.20;;;;;;;15.93;100.00;100614.09;4982074;28;20490;-55
2021/08/12 04:51:14;;;;;;;0.40;0.33;;;;;;;15.95;100.00;100610.38;4995495;28;20484;-55
2021/08/12 04:53:41;;;;;;;4.20;0.70;;;;;;;15.84;100.00;100615.34;4993731;28;20476;-54
2021/08/12 04:56:07;;;;;;;0.40;0.20;;;;;;;16.03;100.00;100618.06;4983826;28;20494;-55
2021/08/12 04:58:34;;;;;;;0.40;0.20;;;;;;;16.07;100.00;100614.31;4995247;28;20520;-55
2021/08/12 05:01:01;;;;;;;0.40;0.27;;;;;;;16.40;100.00;100609.19;4987088;28;20493;-54
2021/08/12 05:03:28;;;;;;;0.60;0.50;;;;;;;16.42;100.00;100612.66;5006467;28;20445;-54
2021/08/12 05:06:08;;;;;;;0.53;0.50;;;;;;;16.99;100.00;100616.16;4992430;28;20821;-54
2021/08/12 05:08:35;;;;;;;0.83;0.47;;;;;;;17.02;100.00;100616.03;4991715;28;20545;-54
2021/08/12 05:11:07;;;;;;;0.57;0.57;;;;;;;17.03;100.00;100600.78;4995256;28;20527;-55
2021/08/12 05:13:34;;;;;;;0.60;0.50;;;;;;;16.97;100.00;100610.00;4981825;28;20456;-54
2021/08/12 05:16:01;;;;;;;0.90;0.90;;;;;;;16.81;100.00;100609.03;4994931;28;20826;-54
2021/08/12 05:18:27;;;;;;;0.50;0.40;;;;;;;17.00;100.00;100603.63;4989244;28;20498;-55
2021/08/12 05:20:54;;;;;;;0.40;0.23;;;;;;;17.08;100.00;100604.09;4987346;28;20465;-54
2021/08/12 05:23:21;;;;;;;0.47;0.47;;;;;;;17.21;100.00;100607.03;4994657;28;20478;-55
2021/08/12 05:25:47;;;;;;;1.23;1.23;;;;;;;17.05;100.00;100609.63;4981447;28;20517;-55
2021/08/12 05:28:14;;;;;;;0.50;0.50;;;;;;;17.14;100.00;100607.38;4993379;28;20505;-56
2021/08/12 05:30:41;;;;;;;0.40;0.20;;;;;;;17.17;100.00;100614.41;4993848;28;20485;-56
2021/08/12 05:33:07;;;;;;;0.40;0.23;;;;;;;17.26;100.00;100610.34;4980403;28;20454;-56
2021/08/12 05:35:34;;;;;;;0.40;0.20;;;;;;;17.22;100.00;100616.84;4993756;28;20450;-55
2021/08/12 05:38:01;;;;;;;1.33;0.87;;;;;;;17.34;100.00;100627.84;4987315;28;20466;-56
2021/08/12 05:40:27;;;;;;;0.40;0.30;;;;;;;17.53;100.00;100634.94;4987029;28;20453;-56
2021/08/12 05:42:54;;;;;;;0.40;0.30;;;;;;;17.55;100.00;100638.44;4992639;28;20458;-56
2021/08/12 05:45:21;;;;;;;0.40;0.20;;;;;;;17.56;100.00;100632.97;4981121;28;20534;-56
2021/08/12 05:47:47;;;;;;;3.07;1.87;;;;;;;17.60;100.00;100622.94;4993494;28;20481;-56
2021/08/12 05:50:14;;;;;;;2.67;2.57;;;;;;;17.62;100.00;100626.41;4993157;28;20520;-56
2021/08/12 05:52:41;;;;;;;0.40;0.20;;;;;;;17.69;100.00;100622.50;4980346;28;20457;-56
2021/08/12 05:55:08;;;;;;;0.40;0.30;;;;;;;17.80;100.00;100617.38;4980771;28;20505;-56
2021/08/12 05:57:34;;;;;;;0.40;0.20;;;;;;;17.74;100.00;100609.66;4980569;28;20479;-55
2021/08/12 06:00:01;;;;;;;0.40;0.20;;;;;;;17.85;100.00;100620.72;4980704;28;20537;-56
2021/08/12 06:02:28;;;;;;;0.50;0.40;;;;;;;18.01;100.00;100620.78;4990818;28;20507;-56
2021/08/12 06:04:55;;;;;;;0.40;0.30;;;;;;;18.26;100.00;100621.16;4997541;28;20465;-56
2021/08/12 06:07:22;;;;;;;0.40;0.40;;;;;;;18.44;100.00;100610.34;4991485;28;20489;-55
2021/08/12 06:09:49;;;;;;;0.57;0.57;;;;;;;18.70;100.00;100625.06;4989752;28;20809;-56
2021/08/12 06:12:15;;;;;;;0.40;0.30;;;;;;;18.77;100.00;100635.38;4985394;28;20458;-56
2021/08/12 06:14:42;;;;;;;0.70;0.70;;;;;;;19.17;100.00;100623.16;4988110;28;20822;-56
2021/08/12 06:17:09;;;;;;;1.63;1.27;;;;;;;19.44;100.00;100627.88;4992928;28;20477;-56
2021/08/12 06:19:38;;;;;;;0.70;0.70;;;;;;;19.46;100.00;100628.66;4979803;28;20879;-56
2021/08/12 06:22:05;;;;;;;0.40;0.20;;;;;;;19.32;100.00;100626.78;4992813;28;20450;-56
2021/08/12 06:24:32;;;;;;;2.37;2.00;;;;;;;19.37;100.00;100621.13;4990569;28;21017;-56
2021/08/12 06:26:58;;;;;;;0.40;0.30;;;;;;;19.20;100.00;100627.53;4982131;28;20450;-56
2021/08/12 06:29:25;;;;;;;7.50;1.23;;;;;;;19.06;100.00;100619.38;4953357;28;1160392;-56
2021/08/12 06:31:53;;;;;;;0.40;0.30;;;;;;;19.28;100.00;100616.28;4984805;28;20215;-56
2021/08/12 06:34:19;;;;;;;0.40;0.20;;;;;;;19.22;100.00;100614.81;4989369;28;20488;-56
2021/08/12 06:36:46;;;;;;;0.50;0.30;;;;;;;19.28;100.00;100613.56;4992372;28;20453;-56
2021/08/12 06:39:12;;;;;;;0.40;0.20;;;;;;;19.42;100.00;100624.41;4990980;28;20520;-56
2021/08/12 06:41:42;;;;;;;0.80;0.80;;;;;;;19.62;100.00;100620.56;4983244;28;20500;-56
2021/08/12 06:44:10;;;;;;;0.50;0.30;;;;;;;19.45;100.00;100621.53;4993235;28;20504;-56
2021/08/12 06:46:37;;;;;;;0.50;0.43;;;;;;;20.51;99.34;100623.97;4983182;28;20561;-56
2021/08/12 06:49:04;;;;;;;1.33;1.23;;;;;;;19.70;100.00;100619.13;4990559;28;20505;-56
2021/08/12 06:51:31;;;;;;;0.50;0.40;;;;;;;19.69;100.00;100611.13;4993271;28;20516;-56
2021/08/12 06:53:57;;;;;;;0.50;0.40;;;;;;;20.01;100.00;100612.72;4980435;28;20507;-56
2021/08/12 06:56:24;;;;;;;4.93;1.93;;;;;;;20.45;99.43;100614.44;4993556;28;20453;-56
2021/08/12 06:58:51;;;;;;;0.40;0.20;;;;;;;20.16;99.64;100618.97;4988559;28;20505;-56
2021/08/12 07:01:17;;;;;;;0.40;0.30;;;;;;;20.20;100.00;100617.81;4984329;28;20453;-56
2021/08/12 07:03:44;;;;;;;0.53;0.53;;;;;;;20.19;99.59;100618.78;5005814;28;20449;-56
2021/08/12 07:06:11;;;;;;;0.50;0.40;;;;;;;20.20;100.00;100625.91;4990385;28;20508;-56
2021/08/12 07:08:42;;;;;;;7.20;1.50;;;;;;;20.56;99.00;100619.13;4988920;28;21057;-56
2021/08/12 07:11:09;;;;;;;0.50;0.40;;;;;;;20.41;99.19;100615.56;4992900;28;20495;-56
2021/08/12 07:13:35;;;;;;;1.30;0.93;;;;;;;20.59;98.29;100611.72;4979515;28;20802;-56
2021/08/12 07:16:02;;;;;;;0.53;0.40;;;;;;;20.66;98.30;100604.94;4992611;28;20523;-56
2021/08/12 07:18:32;;;;;;;0.50;0.43;;;;;;;20.65;99.14;100610.44;4987121;28;20470;-56
2021/08/12 07:20:58;;;;;;;0.50;0.40;;;;;;;20.66;98.60;100620.28;4985940;28;20508;-56
2021/08/12 07:23:27;;;;;;;0.40;0.30;;;;;;;20.54;98.88;100619.25;4986814;28;20604;-56
2021/08/12 07:25:54;;;;;;;0.50;0.40;;;;;;;20.89;97.97;100610.66;4986221;28;20461;-56
2021/08/12 07:28:20;;;;;;;0.40;0.30;;;;;;;21.79;94.64;100612.63;4992352;28;20478;-56
2021/08/12 07:30:47;;;;;;;0.50;0.43;;;;;;;21.65;94.26;100613.59;4979281;28;20454;-56
2021/08/12 07:33:14;;;;;;;0.87;0.83;;;;;;;21.20;97.02;100615.75;4992745;28;20435;-56
2021/08/12 07:35:40;;;;;;;0.40;0.30;;;;;;;21.48;95.84;100616.63;4992139;28;20449;-56
2021/08/12 07:38:07;;;;;;;0.50;0.30;;;;;;;21.82;94.23;100616.03;4984934;28;20958;-56
2021/08/12 07:40:33;;;;;;;0.50;0.33;;;;;;;21.71;94.58;100617.75;4985610;28;20970;-56
2021/08/12 07:43:00;;;;;;;0.40;0.30;;;;;;;22.05;93.14;100625.25;4992492;28;20450;-56
2021/08/12 07:45:26;;;;;;;0.50;0.40;;;;;;;22.39;90.60;100629.13;4979013;28;20493;-56
2021/08/12 07:47:53;;;;;;;0.70;0.70;;;;;;;22.52;91.71;100625.53;4991531;28;20444;-56
2021/08/12 07:50:20;;;;;;;0.50;0.40;;;;;;;22.77;89.91;100620.91;4991400;28;20521;-56
2021/08/12 07:52:46;;;;;;;1.07;1.07;;;;;;;22.42;90.96;100625.31;4980781;28;20447;-56
2021/08/12 07:55:14;;;;;;;0.50;0.30;;;;;;;23.17;89.06;100620.66;4991093;28;20536;-56
2021/08/12 07:57:40;;;;;;;0.40;0.20;;;;;;;23.47;87.83;100617.44;4984932;28;20502;-56
2021/08/12 08:00:07;;;;;;;1.60;1.60;;;;;;;22.67;90.54;100611.72;4985966;28;20467;-56
2021/08/12 08:02:44;;;;;;;0.60;0.60;;;;;;;22.52;91.90;100607.44;5000774;28;20873;-56
2021/08/12 08:05:22;;;;;;;0.80;0.80;;;;;;;22.52;92.67;100611.97;4992705;28;20441;-56
2021/08/12 08:07:50;;;;;;;0.50;0.40;;;;;;;22.70;90.82;100616.91;4996436;28;20465;-56
2021/08/12 08:10:19;;;;;;;0.50;0.50;;;;;;;23.05;89.75;100616.16;4992408;28;20527;-56
2021/08/12 08:12:46;;;;;;;1.03;0.87;;;;;;;23.02;90.68;100605.53;4984056;28;20465;-56
2021/08/12 08:15:16;;;;;;;0.40;0.30;;;;;;;23.30;90.27;100610.63;4995289;28;20519;-56
2021/08/12 08:18:03;;;;;;;0.40;0.30;;;;;;;23.39;89.02;100609.03;4993866;28;20475;-56
2021/08/12 08:20:30;;;;;;;0.60;0.50;;;;;;;23.35;89.79;100612.97;4985164;28;20473;-56
2021/08/12 08:23:05;;;;;;;0.40;0.20;;;;;;;24.21;87.42;100612.53;4995872;28;20457;-56
2021/08/12 08:25:32;;;;;;;0.80;0.80;;;;;;;23.93;87.62;100613.88;4985093;28;20445;-56
2021/08/12 08:28:00;;;;;;;0.40;0.23;;;;;;;23.77;87.71;100614.22;4993273;28;20482;-56
2021/08/12 08:30:29;;;;;;;0.60;0.60;;;;;;;23.71;89.50;100612.00;4996100;28;20467;-56
2021/08/12 08:32:56;;;;;;;0.50;0.50;;;;;;;24.06;88.13;100611.91;4982653;28;20463;-56
2021/08/12 08:35:25;;;;;;;0.60;0.60;;;;;;;24.04;87.36;100611.19;4995678;28;20793;-56
2021/08/12 08:37:55;;;;;;;0.77;0.77;;;;;;;24.54;85.20;100603.56;4990573;28;20473;-56
2021/08/12 08:40:22;;;;;;;0.40;0.30;;;;;;;24.62;84.97;100603.78;4988553;28;20420;-56
2021/08/12 08:42:49;;;;;;;0.40;0.30;;;;;;;25.23;82.50;100598.69;4995492;28;20811;-56
2021/08/12 08:45:21;;;;;;;4.07;1.20;;;;;;;24.57;81.87;100610.59;4983472;28;20429;-56
2021/08/12 08:47:50;;;;;;;0.60;0.53;;;;;;;24.76;83.06;100608.94;4995201;28;20444;-56
2021/08/12 08:50:20;;;;;;;0.50;0.30;;;;;;;24.74;83.43;100601.91;4995301;28;20493;-54
2021/08/12 08:52:48;;;;;;;1.80;1.70;;;;;;;24.85;82.05;100598.31;4983210;28;20435;-54
2021/08/12 08:55:21;;;;;;;0.57;0.50;;;;;;;24.81;81.25;100603.13;4995491;28;20487;-54
2021/08/12 08:57:52;;;;;;;0.50;0.30;;;;;;;24.87;80.75;100599.91;4986728;28;20471;-54
2021/08/12 09:00:19;;;;;;;4.47;1.50;;;;;;;24.65;82.34;100595.34;4991571;28;20476;-54
2021/08/12 09:02:48;;;;;;;0.40;0.30;;;;;;;24.86;81.22;100592.72;5005504;28;20835;-54
2021/08/12 09:05:15;;;;;;;0.50;0.30;;;;;;;25.25;80.02;100593.13;4995066;28;20572;-54
2021/08/12 09:07:44;;;;;;;0.97;0.97;;;;;;;25.39;80.73;100596.41;4995190;28;20471;-54
2021/08/12 09:10:16;;;;;;;0.40;0.30;;;;;;;25.19;78.63;100591.78;4991874;28;20564;-54
2021/08/12 09:12:44;;;;;;;0.63;0.63;;;;;;;25.17;81.09;100585.59;4983449;28;20456;-55
2021/08/12 09:15:13;;;;;;;0.50;0.40;;;;;;;25.37;79.09;100589.34;4994393;28;20510;-54
2021/08/12 09:17:40;;;;;;;0.63;0.57;;;;;;;25.28;78.96;100592.84;4993832;28;20564;-54
2021/08/12 09:20:26;;;;;;;14.37;0.87;;;;;;;25.29;79.48;100591.84;4981853;28;20473;-54
2021/08/12 09:23:04;;;;;;;0.40;0.30;;;;;;;25.43;79.16;100601.56;4995000;28;20568;-54
2021/08/12 09:25:45;;;;;;;4.07;3.70;;;;;;;25.39;78.56;100590.94;4984846;28;20429;-54
2021/08/12 09:28:31;;;;;;;1.70;1.37;;;;;;;26.27;76.16;100593.22;4993411;28;20487;-54
2021/08/12 09:30:58;;;;;;;0.50;0.40;;;;;;;25.74;75.85;100594.38;4993439;28;21023;-54
2021/08/12 09:33:26;;;;;;;0.60;0.50;;;;;;;26.04;76.09;100588.97;4983272;28;20512;-54
2021/08/12 09:35:53;;;;;;;5.90;2.10;;;;;;;25.92;76.79;100599.09;4994514;28;20482;-54
2021/08/12 09:38:21;;;;;;;0.50;0.30;;;;;;;26.39;76.14;100588.56;4986549;28;20485;-54
2021/08/12 09:40:53;;;;;;;0.43;0.30;;;;;;;26.51;76.29;100592.91;4990223;28;20424;-54
2021/08/12 09:43:21;;;;;;;0.50;0.30;;;;;;;26.16;75.76;100581.53;4994475;28;20483;-54
2021/08/12 09:45:48;;;;;;;0.50;0.30;;;;;;;26.20;75.17;100578.44;4981394;28;20427;-55
2021/08/12 09:48:16;;;;;;;0.83;0.83;;;;;;;26.58;73.94;100582.28;4994517;28;20452;-54
2021/08/12 09:50:45;;;;;;;0.50;0.30;;;;;;;26.35;72.63;100578.03;4990711;28;21048;-54
2021/08/12 09:53:20;;;;;;;0.40;0.30;;;;;;;26.92;72.78;100581.94;4985137;28;20497;-55
2021/08/12 09:55:47;;;;;;;0.40;0.30;;;;;;;26.70;70.63;100583.03;4994169;28;20894;-54
2021/08/12 09:58:14;;;;;;;0.90;0.90;;;;;;;27.04;70.30;100589.03;4982516;28;20945;-54
2021/08/12 10:00:46;;;;;;;0.50;0.43;;;;;;;26.50;73.15;100582.16;4992857;28;20975;-54
2021/08/12 10:03:32;;;;;;;0.57;0.47;;;;;;;26.23;73.76;100583.59;5007351;28;20826;-54
2021/08/12 10:06:01;;;;;;;0.50;0.40;;;;;;;26.22;72.55;100575.56;4991244;28;20445;-54
2021/08/12 10:08:33;;;;;;;0.50;0.50;;;;;;;26.50;71.43;100574.81;4990660;28;20970;-55
2021/08/12 10:11:17;;;;;;;0.40;0.30;;;;;;;26.52;72.35;100571.97;4993961;28;20830;-54
2021/08/12 10:13:45;;;;;;;0.40;0.30;;;;;;;26.82;72.66;100571.88;4987677;28;20533;-54
2021/08/12 10:16:15;;;;;;;0.50;0.50;;;;;;;26.88;72.75;100575.06;4987579;28;20458;-54
2021/08/12 10:18:44;;;;;;;0.50;0.30;;;;;;;26.92;71.81;100576.50;4994013;28;20465;-54
2021/08/12 10:21:12;;;;;;;0.40;0.30;;;;;;;26.89;70.67;100580.38;4980861;28;20461;-54
2021/08/12 10:23:40;;;;;;;0.50;0.30;;;;;;;27.25;69.51;100580.69;4993926;28;20455;-54
2021/08/12 10:26:08;;;;;;;1.03;1.03;;;;;;;27.33;67.97;100578.13;4992091;28;20520;-55
2021/08/12 10:28:37;;;;;;;1.43;1.33;;;;;;;27.64;67.35;100574.22;4982567;28;20481;-54
2021/08/12 10:31:05;;;;;;;0.50;0.30;;;;;;;27.64;67.28;100578.81;4993310;28;20528;-54
2021/08/12 10:33:33;;;;;;;0.50;0.50;;;;;;;27.27;66.47;100579.53;4984554;28;20477;-54
2021/08/12 10:36:01;;;;;;;0.50;0.30;;;;;;;27.04;65.21;100578.97;4990316;28;20449;-54
2021/08/12 10:38:28;;;;;;;1.43;1.30;;;;;;;27.25;66.22;100572.50;4983390;28;20470;-54
2021/08/12 10:40:55;;;;;;;1.33;1.23;;;;;;;27.50;67.22;100580.09;4991059;28;20477;-54
2021/08/12 10:43:27;;;;;;;0.60;0.60;;;;;;;27.81;66.50;100572.59;4993482;28;20428;-54
2021/08/12 10:45:54;;;;;;;0.50;0.40;;;;;;;27.55;67.68;100571.47;4980555;28;20453;-54
2021/08/12 10:48:23;;;;;;;0.67;0.67;;;;;;;27.49;67.25;100574.78;4993280;28;20455;-54
2021/08/12 10:51:13;;;;;;;0.50;0.30;;;;;;;26.93;69.91;100565.44;4988414;28;20553;-54
2021/08/12 10:53:45;;;;;;;0.50;0.50;;;;;;;27.63;68.38;100561.53;4988737;28;20423;-54
2021/08/12 10:56:16;;;;;;;0.50;0.30;;;;;;;27.60;66.91;100560.97;4992071;28;20463;-54
2021/08/12 10:58:45;;;;;;;4.30;0.93;;;;;;;27.66;67.58;100566.72;4980329;28;20528;-54
2021/08/12 11:01:23;;;;;;;0.40;0.30;;;;;;;27.27;66.57;100565.88;4993065;28;20492;-54
2021/08/12 11:03:53;;;;;;;0.40;0.30;;;;;;;27.40;68.28;100555.53;5004184;28;20449;-54
2021/08/12 11:06:34;;;;;;;0.50;0.30;;;;;;;27.21;68.94;100541.91;4990246;28;20835;-54
2021/08/12 11:09:02;;;;;;;0.50;0.43;;;;;;;27.60;66.41;100537.25;4981625;28;20974;-54
2021/08/12 11:11:32;;;;;;;0.40;0.30;;;;;;;27.41;68.57;100549.09;4991184;28;20497;-54
2021/08/12 11:14:04;;;;;;;0.53;0.53;;;;;;;27.37;66.82;100550.38;4982349;28;20768;-54
2021/08/12 11:16:39;;;;;;;0.50;0.30;;;;;;;27.52;65.71;100548.03;4993113;28;20450;-54
2021/08/12 11:19:07;;;;;;;0.93;0.90;;;;;;;27.60;65.97;100547.31;4982354;28;20862;-54
2021/08/12 11:21:42;;;;;;;0.50;0.50;;;;;;;27.31;66.89;100542.78;4991343;28;20424;-55
2021/08/12 11:24:11;;;;;;;2.50;1.23;;;;;;;27.52;66.26;100537.13;4993146;28;20449;-54
2021/08/12 11:26:41;;;;;;;0.70;0.67;;;;;;;27.25;67.66;100542.47;4979606;28;20921;-54